Time;durP1;ratioP1;P1;durP2;ratioP2;P2;SDS_P1;SDS_P2;PMS_P1;PMS_P2;Temp;Humidity;BMP_temperature;BMP_pressure;BME280_temperature;BME280_humidity;BME280_pressure;Samples;Min_cycle;Max_cycle;Signal;HPM_P1;HPM_P2
2023/08/01 00:00:50;;;;;;;3.90;3.60;;;20.60;99.90;;;;;;5083178;28;20452;-75
2023/08/01 00:03:15;;;;;;;4.60;4.20;;;20.70;99.90;;;;;;5084551;28;20396;-82
2023/08/01 00:05:44;;;;;;;7.70;3.70;;;20.70;99.90;;;;;;5085274;28;20215;-75
2023/08/01 00:08:13;;;;;;;6.40;3.47;;;20.70;99.90;;;;;;5085219;28;20164;-75
2023/08/01 00:10:43;;;;;;;4.50;4.10;;;20.70;99.90;;;;;;5085395;28;20439;-81
2023/08/01 00:13:09;;;;;;;4.67;4.10;;;20.70;99.90;;;;;;5083251;28;20680;-81
2023/08/01 00:15:35;;;;;;;5.00;4.10;;;20.60;99.90;;;;;;5083660;28;21024;-75
2023/08/01 00:18:01;;;;;;;5.10;3.90;;;20.60;99.90;;;;;;5085496;28;20416;-75
2023/08/01 00:20:26;;;;;;;4.60;3.40;;;20.60;99.90;;;;;;5083245;28;20543;-82
2023/08/01 00:22:52;;;;;;;5.83;3.60;;;20.60;99.90;;;;;;5085516;28;20177;-81
2023/08/01 00:25:18;;;;;;;5.00;3.93;;;20.50;99.90;;;;;;5084525;28;20208;-75
2023/08/01 00:27:44;;;;;;;4.03;3.53;;;20.50;99.90;;;;;;5084922;28;20182;-81
2023/08/01 00:30:10;;;;;;;5.03;4.47;;;20.50;99.90;;;;;;5085356;28;20486;-75
2023/08/01 00:32:36;;;;;;;4.57;4.17;;;20.50;99.90;;;;;;5085029;28;20245;-81
2023/08/01 00:35:03;;;;;;;8.17;4.10;;;20.50;99.90;;;;;;5083670;28;20733;-75
2023/08/01 00:37:29;;;;;;;6.70;4.43;;;20.50;99.90;;;;;;5084872;28;20522;-75
2023/08/01 00:39:54;;;;;;;6.93;4.83;;;20.50;99.90;;;;;;5083125;28;20472;-81
2023/08/01 00:42:20;;;;;;;4.57;4.17;;;20.50;99.90;;;;;;5083643;28;20660;-75
2023/08/01 00:44:47;;;;;;;4.63;4.23;;;20.50;99.90;;;;;;5083549;28;20223;-74
2023/08/01 00:47:14;;;;;;;4.63;4.23;;;20.50;99.90;;;;;;5083296;28;20792;-75
2023/08/01 00:49:40;;;;;;;4.57;4.17;;;20.50;99.90;;;;;;5083565;28;20455;-82
2023/08/01 00:52:06;;;;;;;5.30;4.80;;;20.50;99.90;;;;;;5082880;28;20923;-75
2023/08/01 00:54:36;;;;;;;6.90;4.40;;;20.40;99.90;;;;;;5082938;28;20200;-75
2023/08/01 00:57:03;;;;;;;4.83;4.27;;;20.40;99.90;;;;;;5083396;28;20417;-75
2023/08/01 00:59:29;;;;;;;4.50;4.17;;;20.40;99.90;;;;;;5084428;28;20605;-82
2023/08/01 01:01:55;;;;;;;4.53;4.10;;;20.40;99.90;;;;;;5084797;28;20908;-75
2023/08/01 01:04:21;;;;;;;4.63;4.23;;;20.40;99.90;;;;;;5087240;28;20439;-81
2023/08/01 01:07:13;;;;;;;5.23;4.73;;;20.50;99.90;;;;;;5087552;28;20228;-75
2023/08/01 01:09:39;;;;;;;5.20;4.33;;;20.50;99.90;;;;;;5084736;28;20493;-81
2023/08/01 01:12:05;;;;;;;5.40;4.03;;;20.50;99.90;;;;;;5087361;28;20737;-81
2023/08/01 01:14:30;;;;;;;6.27;4.37;;;20.50;99.90;;;;;;5088445;28;20985;-81
2023/08/01 01:16:56;;;;;;;7.00;3.97;;;20.40;99.90;;;;;;5088324;28;20404;-74
2023/08/01 01:19:22;;;;;;;7.00;4.17;;;20.40;99.90;;;;;;5087749;28;20206;-75
2023/08/01 01:21:48;;;;;;;6.23;4.50;;;20.40;99.90;;;;;;5087300;28;20797;-81
2023/08/01 01:24:16;;;;;;;4.80;3.70;;;20.40;99.90;;;;;;5086347;28;20287;-82
2023/08/01 01:26:43;;;;;;;4.10;3.80;;;20.40;99.90;;;;;;5087671;28;20656;-81
2023/08/01 01:29:10;;;;;;;4.67;4.27;;;20.30;99.90;;;;;;5087466;28;20459;-75
2023/08/01 01:31:37;;;;;;;5.73;4.80;;;20.20;99.90;;;;;;5088535;28;20432;-74
2023/08/01 01:34:04;;;;;;;6.87;4.43;;;20.20;99.90;;;;;;5086662;28;20494;-76
2023/08/01 01:36:29;;;;;;;4.27;3.80;;;20.10;99.90;;;;;;5087702;28;20400;-75
2023/08/01 01:38:55;;;;;;;7.33;4.50;;;20.10;99.90;;;;;;5087759;28;20423;-81
2023/08/01 01:41:22;;;;;;;7.23;5.10;;;20.10;99.90;;;;;;5088655;28;20175;-77
2023/08/01 01:43:48;;;;;;;4.70;4.30;;;20.00;99.90;;;;;;5088074;28;20338;-75
2023/08/01 01:46:13;;;;;;;6.10;4.37;;;20.00;99.90;;;;;;5087561;28;20518;-75
2023/08/01 01:48:39;;;;;;;5.00;4.47;;;19.90;99.90;;;;;;5086148;28;20235;-74
2023/08/01 01:51:05;;;;;;;5.07;4.50;;;19.90;99.90;;;;;;5087983;28;20197;-75
2023/08/01 01:53:30;;;;;;;7.87;4.73;;;19.90;99.90;;;;;;5087265;28;20179;-82
2023/08/01 01:55:56;;;;;;;4.50;4.13;;;19.90;99.90;;;;;;5084845;28;20261;-75
2023/08/01 01:58:22;;;;;;;5.63;5.07;;;19.80;99.90;;;;;;5086359;28;20174;-82
2023/08/01 02:00:49;;;;;;;4.77;4.37;;;19.80;99.90;;;;;;5086562;28;20203;-76
2023/08/01 02:03:14;;;;;;;5.60;5.10;;;19.70;99.90;;;;;;5085510;28;20297;-75
2023/08/01 02:05:41;;;;;;;6.33;4.77;;;19.70;99.90;;;;;;5085536;28;20560;-75
2023/08/01 02:08:07;;;;;;;5.10;4.70;;;19.70;99.90;;;;;;5086269;28;20227;-81
2023/08/01 02:10:32;;;;;;;9.60;4.70;;;19.60;99.90;;;;;;5085855;28;20439;-75
2023/08/01 02:12:58;;;;;;;4.77;4.30;;;19.60;99.90;;;;;;5086630;28;20410;-81
2023/08/01 02:15:24;;;;;;;5.10;4.70;;;19.50;99.90;;;;;;5085233;28;20288;-83
2023/08/01 02:17:50;;;;;;;5.77;5.17;;;19.50;99.90;;;;;;5087343;28;20538;-82
2023/08/01 02:20:16;;;;;;;7.87;4.77;;;19.40;99.90;;;;;;5086231;28;20436;-82
2023/08/01 02:22:42;;;;;;;5.10;4.60;;;19.40;99.90;;;;;;5085709;28;20218;-75
2023/08/01 02:25:08;;;;;;;5.40;4.83;;;19.40;99.90;;;;;;5085807;28;20467;-75
2023/08/01 02:27:33;;;;;;;6.13;5.53;;;19.40;99.90;;;;;;5084265;28;20240;-75
2023/08/01 02:29:59;;;;;;;6.37;4.97;;;19.40;99.90;;;;;;5086697;28;20593;-82
2023/08/01 02:32:25;;;;;;;5.97;5.10;;;19.40;99.90;;;;;;5086619;28;20793;-81
2023/08/01 02:34:51;;;;;;;6.60;5.70;;;19.50;99.90;;;;;;5085653;28;20965;-75
2023/08/01 02:37:16;;;;;;;5.77;4.93;;;19.40;99.90;;;;;;5086346;28;20213;-81
2023/08/01 02:39:42;;;;;;;4.97;4.43;;;19.40;99.90;;;;;;5085198;28;20289;-82
2023/08/01 02:42:08;;;;;;;5.90;5.20;;;19.40;99.90;;;;;;5084904;28;20227;-81
2023/08/01 02:44:34;;;;;;;7.87;5.00;;;19.40;99.90;;;;;;5084745;28;20196;-75
2023/08/01 02:46:59;;;;;;;6.10;5.43;;;19.40;99.90;;;;;;5086553;28;20210;-75
2023/08/01 02:49:25;;;;;;;7.53;4.77;;;19.30;99.90;;;;;;5084567;28;20455;-75
2023/08/01 02:51:51;;;;;;;6.60;4.80;;;19.30;99.90;;;;;;5086954;28;20218;-75
2023/08/01 02:54:17;;;;;;;4.93;4.53;;;19.30;99.90;;;;;;5086410;28;20427;-81
2023/08/01 02:56:42;;;;;;;5.00;4.50;;;19.30;99.90;;;;;;5084727;28;20242;-75
2023/08/01 02:59:08;;;;;;;10.07;5.57;;;19.20;99.90;;;;;;5085454;28;20277;-74
2023/08/01 03:01:35;;;;;;;6.30;5.63;;;19.30;99.90;;;;;;5086345;28;20192;-75
2023/08/01 03:04:06;;;;;;;5.73;4.87;;;19.40;99.90;;;;;;5083765;28;20659;-75
2023/08/01 03:06:32;;;;;;;6.57;5.30;;;19.50;99.90;;;;;;5084898;28;20593;-75
2023/08/01 03:08:59;;;;;;;5.50;5.00;;;19.60;99.90;;;;;;5085648;28;20420;-75
2023/08/01 03:11:25;;;;;;;6.53;5.60;;;19.70;99.90;;;;;;5086133;28;20414;-82
2023/08/01 03:13:51;;;;;;;10.03;5.60;;;19.60;99.90;;;;;;5084771;28;20437;-75
2023/08/01 03:16:17;;;;;;;5.60;5.10;;;19.70;99.90;;;;;;5086157;28;20430;-75
2023/08/01 03:18:43;;;;;;;6.77;6.00;;;19.70;99.90;;;;;;5084818;28;20568;-81
2023/08/01 03:21:09;;;;;;;5.93;4.97;;;19.80;99.90;;;;;;5086087;28;20457;-82
2023/08/01 03:23:36;;;;;;;7.73;5.70;;;19.80;99.90;;;;;;5084614;28;20197;-81
2023/08/01 03:26:03;;;;;;;10.17;5.67;;;19.90;99.90;;;;;;5083476;28;20514;-75
2023/08/01 03:28:28;;;;;;;5.73;5.00;;;19.90;99.90;;;;;;5084107;28;21085;-82
2023/08/01 03:30:54;;;;;;;7.00;5.50;;;20.00;99.90;;;;;;5085457;28;21027;-75
2023/08/01 03:33:20;;;;;;;8.07;5.90;;;20.00;99.90;;;;;;5084755;28;20175;-75
2023/08/01 03:35:46;;;;;;;11.10;6.50;;;19.90;99.90;;;;;;5084043;28;20232;-76
2023/08/01 03:38:12;;;;;;;5.90;5.40;;;19.90;99.90;;;;;;5084277;28;20502;-76
2023/08/01 03:40:37;;;;;;;7.93;5.60;;;19.70;99.90;;;;;;5085017;28;20272;-76
2023/08/01 03:43:03;;;;;;;297.60;168.93;;;19.50;99.90;;;;;;5085383;28;20193;-76
2023/08/01 03:45:29;;;;;;;9.93;8.30;;;19.50;99.90;;;;;;5082553;28;20230;-81
2023/08/01 03:47:55;;;;;;;5.73;4.67;;;19.40;99.90;;;;;;5083788;28;20180;-76
2023/08/01 03:50:21;;;;;;;6.23;5.40;;;19.30;99.90;;;;;;5083684;28;20280;-81
2023/08/01 03:52:46;;;;;;;6.40;5.23;;;19.20;99.90;;;;;;5083607;28;21013;-76
2023/08/01 03:55:12;;;;;;;5.73;5.23;;;19.00;99.90;;;;;;5085374;28;20497;-80
2023/08/01 03:57:38;;;;;;;5.23;4.73;;;19.00;99.90;;;;;;5084725;28;20179;-76
2023/08/01 04:00:13;;;;;;;7.60;5.50;;;18.90;99.90;;;;;;5082766;28;20521;-81
2023/08/01 04:02:41;;;;;;;7.33;5.93;;;18.80;99.90;;;;;;5083970;28;20957;-81
2023/08/01 04:05:08;;;;;;;6.83;6.13;;;18.80;99.90;;;;;;5083623;28;20461;-76
2023/08/01 04:07:37;;;;;;;9.37;6.90;;;18.80;99.90;;;;;;5084599;28;20416;-75
2023/08/01 04:10:03;;;;;;;6.43;5.47;;;18.80;99.90;;;;;;5082221;28;20541;-77
2023/08/01 04:12:33;;;;;;;6.40;5.80;;;18.80;99.90;;;;;;5083429;28;20954;-80
2023/08/01 04:15:00;;;;;;;9.07;6.17;;;18.80;99.90;;;;;;5084848;28;20789;-80
2023/08/01 04:17:25;;;;;;;9.07;6.90;;;18.90;99.90;;;;;;5085712;28;20502;-76
2023/08/01 04:19:51;;;;;;;10.70;6.97;;;18.90;99.90;;;;;;5083814;28;20538;-81
2023/08/01 04:22:17;;;;;;;8.10;6.47;;;19.00;99.90;;;;;;5084062;28;20414;-80
2023/08/01 04:24:43;;;;;;;7.50;6.70;;;19.00;99.90;;;;;;5083417;28;20206;-80
2023/08/01 04:27:09;;;;;;;7.97;6.60;;;19.10;99.90;;;;;;5083567;28;20515;-80
2023/08/01 04:29:35;;;;;;;6.77;6.10;;;19.10;99.90;;;;;;5083182;28;20455;-76
2023/08/01 04:32:01;;;;;;;7.80;6.30;;;19.20;99.90;;;;;;5083459;28;20174;-80
2023/08/01 04:34:27;;;;;;;7.87;7.07;;;19.20;99.90;;;;;;5083728;28;20445;-80
2023/08/01 04:36:52;;;;;;;7.37;6.10;;;19.30;99.90;;;;;;5083870;28;20985;-81
2023/08/01 04:39:18;;;;;;;6.23;5.60;;;19.30;99.90;;;;;;5088923;28;20234;-77
2023/08/01 04:41:44;;;;;;;7.97;7.17;;;19.40;99.90;;;;;;5087547;28;20265;-81
2023/08/01 04:44:09;;;;;;;8.83;6.47;;;19.40;99.90;;;;;;5087202;28;20181;-81
2023/08/01 04:46:35;;;;;;;7.70;6.90;;;19.50;99.90;;;;;;5070487;28;20692;-76
2023/08/01 04:49:01;;;;;;;7.23;6.03;;;19.60;99.90;;;;;;5067122;28;20195;-81
2023/08/01 04:51:26;;;;;;;8.50;6.40;;;19.70;99.90;;;;;;5087487;28;20205;-79
2023/08/01 04:53:52;;;;;;;7.67;6.70;;;19.80;99.90;;;;;;5086417;28;20272;-76
2023/08/01 04:56:18;;;;;;;8.53;6.37;;;19.80;99.90;;;;;;5088996;28;20348;-79
2023/08/01 04:58:43;;;;;;;7.80;6.77;;;19.90;99.90;;;;;;5089113;28;20576;-76
2023/08/01 05:01:09;;;;;;;10.13;8.97;;;20.00;99.90;;;;;;5086332;28;20203;-76
2023/08/01 05:03:35;;;;;;;6.73;6.13;;;20.00;99.90;;;;;;5087511;28;20211;-75
2023/08/01 05:06:00;;;;;;;7.20;6.50;;;20.10;99.90;;;;;;5075390;28;20335;-81
2023/08/01 05:08:26;;;;;;;229.27;123.70;;;20.20;99.90;;;;;;5072898;28;20196;-74
2023/08/01 05:10:52;;;;;;;8.10;7.33;;;20.30;99.90;;;;;;5068975;28;20497;-75
2023/08/01 05:13:18;;;;;;;7.67;6.43;;;20.40;99.90;;;;;;5074139;28;20278;-76
2023/08/01 05:15:47;;;;;;;10.07;7.10;;;20.50;99.90;;;;;;5070440;28;20236;-76
2023/08/01 05:18:16;;;;;;;7.60;5.90;;;20.50;99.90;;;;;;5072911;28;21225;-76
2023/08/01 05:20:41;;;;;;;7.87;6.30;;;20.60;99.90;;;;;;5077329;28;20433;-81
2023/08/01 05:23:07;;;;;;;7.93;6.83;;;20.70;99.90;;;;;;5076081;28;20408;-80
2023/08/01 05:25:33;;;;;;;6.60;5.90;;;20.80;99.90;;;;;;5076052;28;20438;-76
2023/08/01 05:27:58;;;;;;;5.93;5.33;;;20.90;99.90;;;;;;5086884;28;20263;-76
2023/08/01 05:30:25;;;;;;;10.53;5.73;;;21.00;99.90;;;;;;5079296;28;20204;-76
2023/08/01 05:32:50;;;;;;;6.77;5.23;;;21.00;99.90;;;;;;5086913;28;20173;-76
2023/08/01 05:35:17;;;;;;;8.07;5.50;;;21.10;99.90;;;;;;5085820;28;20467;-76
2023/08/01 05:37:43;;;;;;;7.23;5.80;;;21.20;99.90;;;;;;5085396;28;20530;-75
2023/08/01 05:40:10;;;;;;;8.43;5.50;;;21.30;99.90;;;;;;5086109;28;20468;-76
2023/08/01 05:42:35;;;;;;;5.13;4.63;;;21.30;99.90;;;;;;5084020;28;20421;-75
2023/08/01 05:45:01;;;;;;;6.40;5.30;;;21.40;99.90;;;;;;5079679;28;20784;-76
2023/08/01 05:47:27;;;;;;;35.00;23.73;;;21.50;99.90;;;;;;5065953;28;20613;-75
2023/08/01 05:49:52;;;;;;;9.77;6.23;;;21.60;99.90;;;;;;5065442;28;20723;-80
2023/08/01 05:52:18;;;;;;;7.33;5.70;;;21.70;99.90;;;;;;5066522;28;20774;-81
2023/08/01 05:54:44;;;;;;;9.73;5.17;;;21.80;99.90;;;;;;5084112;28;20238;-76
2023/08/01 05:57:09;;;;;;;4.83;4.20;;;21.80;99.90;;;;;;5086212;28;20203;-76
2023/08/01 05:59:36;;;;;;;7.80;4.90;;;21.90;99.90;;;;;;5077056;28;20608;-81
2023/08/01 06:02:02;;;;;;;5.07;4.23;;;22.10;99.90;;;;;;5075909;28;20421;-76
2023/08/01 06:04:28;;;;;;;4.57;3.77;;;22.10;99.90;;;;;;5061790;28;20481;-81
2023/08/01 06:06:53;;;;;;;5.40;3.87;;;22.20;99.90;;;;;;5061484;28;20524;-76
2023/08/01 06:09:19;;;;;;;8.33;4.57;;;22.30;99.90;;;;;;5064599;28;20205;-81
2023/08/01 06:11:45;;;;;;;7.70;4.43;;;22.30;99.90;;;;;;5065766;28;20264;-77
2023/08/01 06:14:10;;;;;;;7.10;3.93;;;22.50;99.90;;;;;;5065790;28;20291;-82
2023/08/01 06:16:37;;;;;;;4.97;3.90;;;22.60;99.90;;;;;;5064433;28;20394;-76
2023/08/01 06:19:04;;;;;;;5.13;3.90;;;22.80;99.90;;;;;;5064359;28;20195;-80
2023/08/01 06:21:29;;;;;;;8.60;4.43;;;22.80;99.90;;;;;;5077689;28;20406;-76
2023/08/01 06:23:55;;;;;;;7.10;4.00;;;22.90;99.90;;;;;;5063227;28;20549;-76
2023/08/01 06:26:20;;;;;;;6.13;3.30;;;23.00;99.90;;;;;;5060939;28;20213;-77
2023/08/01 06:28:46;;;;;;;4.87;4.30;;;23.20;99.90;;;;;;5063034;28;20528;-76
2023/08/01 06:31:13;;;;;;;6.57;3.97;;;23.30;99.90;;;;;;5061081;28;20201;-81
2023/08/01 06:33:39;;;;;;;4.40;3.67;;;23.30;99.90;;;;;;5062309;28;20446;-76
2023/08/01 06:36:05;;;;;;;5.00;3.90;;;23.40;99.90;;;;;;5063844;28;20711;-81
2023/08/01 06:38:31;;;;;;;5.63;3.70;;;23.50;99.90;;;;;;5066607;28;20459;-81
2023/08/01 06:40:57;;;;;;;5.20;3.60;;;23.60;99.90;;;;;;5069533;28;20693;-81
2023/08/01 06:43:24;;;;;;;7.90;3.83;;;23.70;99.90;;;;;;5083822;28;20411;-80
2023/08/01 06:45:50;;;;;;;5.67;3.97;;;23.80;99.90;;;;;;5080976;28;20215;-76
2023/08/01 06:48:15;;;;;;;7.50;4.03;;;23.90;99.90;;;;;;5079347;28;20467;-76
2023/08/01 06:50:41;;;;;;;6.50;3.80;;;24.10;99.90;;;;;;5074790;28;20582;-75
2023/08/01 06:53:08;;;;;;;4.93;3.23;;;24.10;99.90;;;;;;5081022;28;20365;-78
2023/08/01 06:55:34;;;;;;;7.63;3.83;;;24.20;99.90;;;;;;5081110;28;20263;-81
2023/08/01 06:57:59;;;;;;;5.63;3.20;;;24.30;99.90;;;;;;5081003;28;20415;-80
2023/08/01 07:00:25;;;;;;;4.67;3.40;;;24.40;99.90;;;;;;5080094;28;20390;-81
2023/08/01 07:02:51;;;;;;;5.97;3.40;;;24.40;99.90;;;;;;5078896;28;20171;-81
2023/08/01 07:05:17;;;;;;;5.30;3.20;;;24.50;99.90;;;;;;5080959;28;20571;-81
2023/08/01 07:07:42;;;;;;;8.10;3.57;;;24.60;99.90;;;;;;5080315;28;20183;-81
2023/08/01 07:10:09;;;;;;;4.43;3.20;;;24.60;99.90;;;;;;5080700;28;20204;-82
2023/08/01 07:12:35;;;;;;;4.27;3.43;;;24.70;99.90;;;;;;5073722;28;20495;-76
2023/08/01 07:15:01;;;;;;;3.70;3.33;;;24.70;99.90;;;;;;5059298;28;21109;-81
2023/08/01 07:17:26;;;;;;;3.60;3.30;;;24.80;99.90;;;;;;5058341;28;20181;-76
2023/08/01 07:19:53;;;;;;;4.50;3.27;;;24.80;99.90;;;;;;5067539;28;20540;-81
2023/08/01 07:22:19;;;;;;;7.30;4.13;;;24.90;99.90;;;;;;5080490;28;20663;-82
2023/08/01 07:24:44;;;;;;;4.53;3.27;;;24.90;99.90;;;;;;5079911;28;20748;-82
2023/08/01 07:27:11;;;;;;;4.67;3.80;;;25.00;99.90;;;;;;5079339;28;20215;-76
2023/08/01 07:29:37;;;;;;;5.10;3.13;;;25.00;99.90;;;;;;5077584;28;20207;-82
2023/08/01 07:32:04;;;;;;;5.37;3.20;;;25.10;99.90;;;;;;5076612;28;20435;-81
2023/08/01 07:34:30;;;;;;;4.63;3.20;;;25.10;99.90;;;;;;5080541;28;20862;-79
2023/08/01 07:36:55;;;;;;;6.80;4.77;;;25.10;99.90;;;;;;5080119;28;20429;-83
2023/08/01 07:39:21;;;;;;;6.30;3.40;;;25.20;99.90;;;;;;5081455;28;20200;-76
2023/08/01 07:41:47;;;;;;;3.60;3.17;;;25.30;99.90;;;;;;5082705;28;20200;-81
2023/08/01 07:44:13;;;;;;;5.60;3.20;;;25.40;99.90;;;;;;5081349;28;20478;-76
2023/08/01 07:46:39;;;;;;;7.43;3.27;;;25.50;99.90;;;;;;5063952;28;20215;-76
2023/08/01 07:49:05;;;;;;;4.70;3.10;;;25.50;99.90;;;;;;5060467;28;20845;-83
2023/08/01 07:51:30;;;;;;;4.63;3.20;;;25.60;99.90;;;;;;5067751;28;20544;-81
2023/08/01 07:53:57;;;;;;;4.40;2.80;;;25.60;99.90;;;;;;5081272;28;20180;-76
2023/08/01 07:56:22;;;;;;;3.47;3.17;;;25.70;99.90;;;;;;5080895;28;20316;-82
2023/08/01 07:58:48;;;;;;;5.27;3.40;;;25.80;99.90;;;;;;5080979;28;20432;-81
2023/08/01 08:01:14;;;;;;;3.70;3.40;;;25.90;99.90;;;;;;5072371;28;20222;-76
2023/08/01 08:03:40;;;;;;;6.73;3.57;;;25.90;99.90;;;;;;5070270;28;20340;-83
2023/08/01 08:06:06;;;;;;;5.93;3.40;;;26.10;99.90;;;;;;5079060;28;20708;-83
2023/08/01 08:08:36;;;;;;;3.47;2.93;;;26.20;99.90;;;;;;5078546;28;20409;-76
2023/08/01 08:11:02;;;;;;;6.20;3.03;;;26.30;99.90;;;;;;5063756;28;20205;-76
2023/08/01 08:13:28;;;;;;;4.63;3.43;;;26.40;99.90;;;;;;5071110;28;20929;-82
2023/08/01 08:15:57;;;;;;;3.93;3.53;;;26.40;99.90;;;;;;5059204;28;20464;-82
2023/08/01 08:18:23;;;;;;;143.40;86.27;;;26.40;99.90;;;;;;5073343;28;20442;-83
2023/08/01 08:20:49;;;;;;;5.50;2.77;;;26.50;99.90;;;;;;5081182;28;20810;-76
2023/08/01 08:23:15;;;;;;;2.83;2.50;;;26.60;99.90;;;;;;5063892;28;20429;-83
2023/08/01 08:25:44;;;;;;;8.70;3.10;;;26.60;99.90;;;;;;5065012;28;20517;-83
2023/08/01 08:28:11;;;;;;;10.87;3.70;;;26.60;99.90;;;;;;5080056;28;20404;-77
2023/08/01 08:30:37;;;;;;;3.10;2.90;;;26.60;99.90;;;;;;5068874;28;20476;-76
2023/08/01 08:33:04;;;;;;;3.57;3.20;;;26.60;99.90;;;;;;5074133;28;20420;-82
2023/08/01 08:35:30;;;;;;;6.43;3.23;;;26.70;99.90;;;;;;5076871;28;20472;-76
2023/08/01 08:37:58;;;;;;;4.40;2.83;;;26.70;99.90;;;;;;5077831;28;20416;-76
2023/08/01 08:40:24;;;;;;;6.07;3.27;;;26.80;99.90;;;;;;5077236;28;20471;-76
2023/08/01 08:42:52;;;;;;;3.63;3.07;;;26.80;99.90;;;;;;5077302;28;20405;-75
2023/08/01 08:45:19;;;;;;;3.50;2.47;;;26.90;99.90;;;;;;5076964;28;20211;-82
2023/08/01 08:47:55;;;;;;;5.77;3.10;;;27.00;99.90;;;;;;5075822;28;20653;-82
2023/08/01 08:50:21;;;;;;;6.50;3.20;;;27.10;99.90;;;;;;5076787;28;20444;-76
2023/08/01 08:52:46;;;;;;;4.17;2.90;;;27.10;99.90;;;;;;5078643;28;20408;-76
2023/08/01 08:55:12;;;;;;;5.20;2.80;;;27.20;99.90;;;;;;5064887;28;20554;-75
2023/08/01 08:57:39;;;;;;;3.40;2.80;;;27.20;99.90;;;;;;5080069;28;20409;-76
2023/08/01 09:00:06;;;;;;;3.37;2.90;;;27.20;99.90;;;;;;5078315;28;20204;-82
2023/08/01 09:02:33;;;;;;;3.10;2.80;;;27.30;99.90;;;;;;5064843;28;20508;-76
2023/08/01 09:04:59;;;;;;;4.30;3.43;;;27.30;99.90;;;;;;5073450;28;20468;-76
2023/08/01 09:07:29;;;;;;;3.50;2.53;;;27.30;99.90;;;;;;5067337;28;20720;-82
2023/08/01 09:09:55;;;;;;;2.97;2.77;;;27.40;99.90;;;;;;5063564;28;20446;-82
2023/08/01 09:12:21;;;;;;;5.63;3.53;;;27.50;99.90;;;;;;5070186;28;20994;-82
2023/08/01 09:14:51;;;;;;;7.70;3.43;;;27.50;99.90;;;;;;5060129;28;20233;-82
2023/08/01 09:17:18;;;;;;;3.00;2.43;;;27.60;99.90;;;;;;5071253;28;20630;-76
2023/08/01 09:19:44;;;;;;;4.10;3.10;;;27.70;99.90;;;;;;5074665;28;20464;-81
2023/08/01 09:22:11;;;;;;;3.20;2.80;;;27.80;99.90;;;;;;5080429;28;20511;-81
2023/08/01 09:24:37;;;;;;;8.50;2.83;;;27.90;99.90;;;;;;5066242;28;20865;-81
2023/08/01 09:27:08;;;;;;;3.20;2.87;;;27.90;99.40;;;;;;5075917;28;20553;-79
2023/08/01 09:29:34;;;;;;;5.10;3.60;;;27.90;98.90;;;;;;5085686;28;20204;-76
2023/08/01 09:31:59;;;;;;;6.30;3.10;;;27.90;98.10;;;;;;5066179;28;20414;-76
2023/08/01 09:34:27;;;;;;;3.90;3.10;;;27.80;98.60;;;;;;5066302;28;20202;-77
2023/08/01 09:36:58;;;;;;;5.90;2.90;;;27.90;99.40;;;;;;5063280;28;20176;-81
2023/08/01 09:39:24;;;;;;;4.00;2.60;;;28.00;98.90;;;;;;5069643;28;20846;-82
2023/08/01 09:41:57;;;;;;;3.90;2.87;;;28.10;98.70;;;;;;5068873;28;20420;-81
2023/08/01 09:44:24;;;;;;;3.63;2.70;;;28.10;97.50;;;;;;5073583;28;20547;-76
2023/08/01 09:47:00;;;;;;;3.33;3.00;;;28.20;97.70;;;;;;5082811;28;20462;-80
2023/08/01 09:49:30;;;;;;;3.43;2.43;;;28.30;96.50;;;;;;5068766;28;20556;-76
2023/08/01 09:51:58;;;;;;;3.23;2.40;;;28.30;96.70;;;;;;5064806;28;20461;-76
2023/08/01 09:54:24;;;;;;;2.97;2.43;;;28.30;97.40;;;;;;5064996;28;20557;-80
2023/08/01 09:56:52;;;;;;;5.60;3.60;;;28.40;97.20;;;;;;5064475;28;20845;-76
2023/08/01 09:59:23;;;;;;;3.30;2.43;;;28.50;98.00;;;;;;5062674;28;20291;-76
2023/08/01 10:01:50;;;;;;;2.97;2.70;;;28.60;97.60;;;;;;5073690;28;20621;-80
2023/08/01 10:04:34;;;;;;;3.27;2.50;;;28.70;97.20;;;;;;5065123;28;20454;-76
2023/08/01 10:07:08;;;;;;;3.93;2.83;;;28.80;98.40;;;;;;5075051;28;20477;-76
2023/08/01 10:09:35;;;;;;;3.37;2.60;;;28.80;96.70;;;;;;5075278;28;21043;-79
2023/08/01 10:12:02;;;;;;;3.60;2.60;;;28.80;95.70;;;;;;5074200;28;20665;-79
2023/08/01 10:14:29;;;;;;;5.70;2.40;;;28.90;95.70;;;;;;5071429;28;20759;-76
2023/08/01 10:16:56;;;;;;;3.23;2.83;;;28.90;96.30;;;;;;5072079;28;20408;-79
2023/08/01 10:19:22;;;;;;;2.83;2.63;;;29.00;95.50;;;;;;5078894;28;20445;-78
2023/08/01 10:21:49;;;;;;;8.10;3.60;;;29.00;95.90;;;;;;5077994;28;20403;-78
2023/08/01 10:24:15;;;;;;;7.13;2.90;;;29.10;96.50;;;;;;5075505;28;20276;-79
2023/08/01 10:26:44;;;;;;;2.90;2.60;;;29.10;96.50;;;;;;5064010;28;20873;-79
2023/08/01 10:29:09;;;;;;;2.70;2.50;;;29.20;96.60;;;;;;5069002;28;20707;-78
2023/08/01 10:31:35;;;;;;;4.73;2.73;;;29.20;95.80;;;;;;5063732;28;20437;-79
2023/08/01 10:34:13;;;;;;;4.20;2.57;;;29.30;95.20;;;;;;5060532;28;20192;-79
2023/08/01 10:36:38;;;;;;;2.90;2.40;;;29.30;95.00;;;;;;5071019;28;20178;-79
2023/08/01 10:39:05;;;;;;;4.00;2.40;;;29.40;95.00;;;;;;5074315;28;20463;-79
2023/08/01 10:41:33;;;;;;;4.40;2.50;;;29.40;95.10;;;;;;5070748;28;21484;-78
2023/08/01 10:44:13;;;;;;;3.57;2.70;;;29.40;95.40;;;;;;5069671;28;20450;-76
2023/08/01 10:46:49;;;;;;;3.90;2.10;;;29.40;95.10;;;;;;5062403;28;20481;-76
2023/08/01 10:49:16;;;;;;;3.87;2.20;;;29.50;95.80;;;;;;5076536;28;20504;-78
2023/08/01 10:51:42;;;;;;;6.73;2.27;;;29.60;95.00;;;;;;5066030;28;20429;-79
2023/08/01 10:54:25;;;;;;;3.03;2.07;;;29.60;93.60;;;;;;5062988;28;20474;-79
2023/08/01 10:56:52;;;;;;;2.33;1.83;;;29.50;93.10;;;;;;5074287;28;20426;-78
2023/08/01 10:59:19;;;;;;;3.07;2.60;;;29.50;93.00;;;;;;5075345;28;20526;-78
2023/08/01 11:01:50;;;;;;;6.53;2.70;;;29.50;92.20;;;;;;5076920;28;21179;-76
2023/08/01 11:04:21;;;;;;;2.33;2.13;;;29.50;93.10;;;;;;5074394;28;20460;-78
2023/08/01 11:06:52;;;;;;;2.57;2.10;;;29.60;93.60;;;;;;5062056;28;20593;-79
2023/08/01 11:09:22;;;;;;;3.60;2.57;;;29.70;93.70;;;;;;5062146;28;20636;-78
2023/08/01 11:11:51;;;;;;;2.87;2.60;;;29.70;92.30;;;;;;5076207;28;20434;-75
2023/08/01 11:14:20;;;;;;;3.67;2.90;;;29.60;93.00;;;;;;5064873;28;20492;-80
2023/08/01 11:16:47;;;;;;;2.30;2.07;;;29.70;93.00;;;;;;5060843;28;20495;-76
2023/08/01 11:19:20;;;;;;;4.40;2.27;;;29.70;92.30;;;;;;5059424;28;20429;-74
2023/08/01 11:21:46;;;;;;;2.20;1.77;;;29.70;91.80;;;;;;5075396;28;20436;-82
2023/08/01 11:24:12;;;;;;;2.80;2.27;;;29.70;91.80;;;;;;5072246;28;20552;-82
2023/08/01 11:26:46;;;;;;;3.63;3.33;;;29.80;91.60;;;;;;5064252;28;20575;-82
2023/08/01 11:29:13;;;;;;;3.30;2.27;;;29.80;91.50;;;;;;5069529;28;20916;-74
2023/08/01 11:31:41;;;;;;;2.70;2.00;;;29.90;91.40;;;;;;5058471;28;20512;-74
2023/08/01 11:34:12;;;;;;;4.30;2.03;;;29.80;91.80;;;;;;5061423;28;20443;-87
2023/08/01 11:36:38;;;;;;;3.87;2.03;;;29.90;91.90;;;;;;5066616;28;20423;-83
2023/08/01 11:39:04;;;;;;;2.77;2.27;;;29.90;91.80;;;;;;5067734;28;20474;-82
2023/08/01 11:41:30;;;;;;;3.30;2.07;;;29.80;91.00;;;;;;5070665;28;20183;-82
2023/08/01 11:44:01;;;;;;;2.93;2.23;;;29.80;91.40;;;;;;5066825;28;20438;-82
2023/08/01 11:46:32;;;;;;;4.90;2.90;;;29.90;91.60;;;;;;5060351;28;20464;-74
2023/08/01 11:48:59;;;;;;;2.90;2.43;;;29.90;91.90;;;;;;5062039;28;20434;-84
2023/08/01 11:51:25;;;;;;;3.93;2.10;;;30.00;92.20;;;;;;5061323;28;20478;-74
2023/08/01 11:54:02;;;;;;;2.70;2.50;;;30.10;91.10;;;;;;5067161;28;20435;-82
2023/08/01 11:56:28;;;;;;;3.20;2.27;;;30.20;90.90;;;;;;5073193;28;20176;-74
2023/08/01 11:58:54;;;;;;;3.30;2.43;;;30.20;90.80;;;;;;5071243;28;20446;-74
2023/08/01 12:01:21;;;;;;;2.20;2.00;;;30.20;90.50;;;;;;5067680;28;21051;-73
2023/08/01 12:03:54;;;;;;;3.53;1.83;;;30.20;90.70;;;;;;5062890;28;20478;-82
2023/08/01 12:06:22;;;;;;;2.50;2.30;;;30.20;89.60;;;;;;5075689;28;20487;-74
2023/08/01 12:08:50;;;;;;;3.07;2.43;;;30.20;89.90;;;;;;5056055;28;20439;-81
2023/08/01 12:11:29;;;;;;;4.80;1.97;;;30.20;90.70;;;;;;5057576;28;20506;-86
2023/08/01 12:14:06;;;;;;;2.67;2.43;;;30.30;90.80;;;;;;5062264;28;20439;-86
2023/08/01 12:16:32;;;;;;;2.90;2.30;;;30.30;90.10;;;;;;5064853;28;20444;-74
2023/08/01 12:18:59;;;;;;;2.30;2.10;;;30.30;90.60;;;;;;5043872;28;20464;-76
2023/08/01 12:21:25;;;;;;;2.90;2.67;;;30.40;90.50;;;;;;5066714;28;20420;-75
2023/08/01 12:23:50;;;;;;;2.83;2.20;;;30.40;90.30;;;;;;5076821;28;20690;-85
2023/08/01 12:26:16;;;;;;;2.40;2.20;;;30.50;90.20;;;;;;5077509;28;20227;-82
2023/08/01 12:28:42;;;;;;;3.03;2.23;;;30.50;90.10;;;;;;5065851;28;20249;-74
2023/08/01 12:31:07;;;;;;;2.60;2.17;;;30.50;90.20;;;;;;5071879;28;20290;-87
2023/08/01 12:33:33;;;;;;;2.93;2.00;;;30.50;87.60;;;;;;5069350;28;20632;-84
2023/08/01 12:36:03;;;;;;;2.23;2.03;;;30.50;87.30;;;;;;5057063;28;20321;-81
2023/08/01 12:38:29;;;;;;;3.20;1.80;;;30.50;87.80;;;;;;5088694;28;20600;-87
2023/08/01 12:40:55;;;;;;;1.70;1.60;;;30.50;87.30;;;;;;5059608;28;20464;-75
2023/08/01 12:43:20;;;;;;;1.93;1.80;;;30.50;86.40;;;;;;5074093;28;20180;-82